Amidon, ND (58620)

3:59 AM MDT on July 28, 2016 (GMT -0600)
ND Hwy 67 & 84th St SW | | Change Station

Elev 2900 ft 46.21 °N, 103.14 °W | Updated 8 minutes ago

Fog
Fog
57.9 °F
Feels Like 57.9 °F
N
4.2
Wind Variable Wind from NE

Today
High -- | Low -- °F
--% Chance of Precip.
Yesterday
High -- | Low -- °F
Precip. -- in
Pressure 30.09 in
Visibility 0.2 miles
Clouds
Dew Point 56 °F
Humidity 92%
Rainfall 0.00 in
Snow Depth Not available.
5:30 AM 8:28 PM
Waning Crescent, 33% visible
METAR KDIK 280956Z AUTO 08004KT 1/4SM FG VV002 15/15 A3012 RMK AO2 SLP190 T01500150
Pressure 30.09 in
Visibility 0.2 miles
Clouds
Dew Point 56 °F
Humidity 92%
Rainfall 0.00 in
Snow Depth Not available.
5:30 AM 8:28 PM
Waning Crescent, 33% visible
METAR KDIK 280956Z AUTO 08004KT 1/4SM FG VV002 15/15 A3012 RMK AO2 SLP190 T01500150

10-Day Weather Forecast

Almanac

Astronomy

Jul. 28, 2016 Rise Set
Actual Time
Civil Twilight
Nautical Twilight
Astronomical Twilight
Moon
Length of Visible Light
Length of Day
Tomorrow will be .
, % of the Moon is Illuminated

Today's Extremes

State Highs State Lows

Community

WunderPhotos

Upload Photos

1,928,070 photos uploaded!

WunderBlog® & News

Nearby

Air Quality

  Air Quality AQ Index Pollutant
Not available.

Snow Depth

Station Depth Elevation

Earthquake Activity

City Distance Mag. Time & Date
Minimum magnitude displayed is 2.5.

Coastal Water Temperatures

Place Temperature

Stations

Nearby Weather Stations

Station Location Temp. Windchill Dew Point Humidity Wind Precip. Elev Updated Type
                   

Watches & Warnings

There are currently no watches in effect.